Time;durP1;ratioP1;P1;durP2;ratioP2;P2;SDS_P1;SDS_P2;PMS_P1;PMS_P2;Temp;Humidity;BMP_temperature;BMP_pressure;BME280_temperature;BME280_humidity;BME280_pressure;Samples;Min_cycle;Max_cycle;Signal;HPM_P1;HPM_P2
2022/08/11 00:01:04;;;;;;;;;;;;;;;34.50;23.40;101571.59;4433835;32;20029;-68
2022/08/11 00:03:30;;;;;;;;;;;;;;;34.37;23.58;101571.81;4419157;32;19960;-68
2022/08/11 00:05:56;;;;;;;;;;;;;;;34.10;23.94;101571.44;4437376;32;19976;-68
2022/08/11 00:08:25;;;;;;;;;;;;;;;34.06;24.06;101561.50;4433614;32;20031;-68
2022/08/11 00:10:55;;;;;;;;;;;;;;;34.12;23.96;101553.31;4434255;32;19985;-68
2022/08/11 00:13:21;;;;;;;;;;;;;;;34.38;23.69;101555.06;4434873;32;19953;-68
2022/08/11 00:15:47;;;;;;;;;;;;;;;34.38;23.77;101558.75;4433351;32;20448;-68
2022/08/11 00:18:12;;;;;;;;;;;;;;;34.30;23.88;101555.81;4433638;32;20004;-68
2022/08/11 00:20:41;;;;;;;;;;;;;;;34.29;23.92;101556.41;4433244;32;19965;-68
2022/08/11 00:23:09;;;;;;;;;;;;;;;34.26;23.99;101557.56;4432378;32;19963;-68
2022/08/11 00:25:43;;;;;;;;;;;;;;;34.16;24.13;101554.47;4434303;32;19945;-68
2022/08/11 00:28:27;;;;;;;;;;;;;;;34.03;24.34;101550.97;4432648;32;19953;-68
2022/08/11 00:30:54;;;;;;;;;;;;;;;34.03;24.35;101559.75;4421948;32;20008;-68
2022/08/11 00:33:22;;;;;;;;;;;;;;;33.99;24.49;101557.19;4423168;32;19980;-68
2022/08/11 00:35:48;;;;;;;;;;;;;;;33.88;24.54;101559.75;4422487;32;19972;-68
2022/08/11 00:38:15;;;;;;;;;;;;;;;34.16;24.22;101550.78;4421595;32;20015;-68
2022/08/11 00:40:44;;;;;;;;;;;;;;;34.06;24.30;101552.75;4423594;32;19975;-68
2022/08/11 00:43:29;;;;;;;;;;;;;;;34.02;24.36;101561.12;4422802;32;19950;-68
2022/08/11 00:46:07;;;;;;;;;;;;;;;33.87;24.56;101549.44;4422792;32;20029;-68
2022/08/11 00:48:52;;;;;;;;;;;;;;;33.74;24.76;101555.41;4423169;32;20039;-68
2022/08/11 00:51:38;;;;;;;;;;;;;;;33.61;25.00;101546.84;4423030;32;20041;-68
2022/08/11 00:54:21;;;;;;;;;;;;;;;33.72;24.86;101547.25;4419545;32;19988;-68
2022/08/11 01:02:13;;;;;;;;;;;;;;;33.73;24.90;101542.97;3956760;32;15724119;-69
2022/08/11 01:07:40;;;;;;;;;;;;;;;34.01;24.86;101545.72;3955237;32;15725468;-69
2022/08/11 01:15:36;;;;;;;;;;;;;;;33.92;25.05;101545.53;3956162;32;15725606;-69
2022/08/11 01:18:22;;;;;;;;;;;;;;;33.92;25.05;101545.53;4429753;32;19997;-68
2022/08/11 01:21:07;;;;;;;;;;;;;;;33.59;25.35;101547.41;4429644;32;20002;-69
2022/08/11 01:23:53;;;;;;;;;;;;;;;33.38;25.61;101546.78;4433016;32;20012;-68
2022/08/11 01:26:39;;;;;;;;;;;;;;;33.34;25.66;101542.69;4429672;32;20008;-68
2022/08/11 01:29:24;;;;;;;;;;;;;;;33.32;25.68;101543.28;4432753;32;20122;-68
2022/08/11 01:32:10;;;;;;;;;;;;;;;33.45;25.68;101540.22;4430669;32;19962;-68
2022/08/11 01:34:55;;;;;;;;;;;;;;;33.54;25.64;101548.41;4430049;32;19969;-68
2022/08/11 01:37:40;;;;;;;;;;;;;;;33.41;25.77;101547.78;4428943;32;20101;-68
2022/08/11 01:40:26;;;;;;;;;;;;;;;33.49;25.69;101542.72;4430986;32;21067;-68
2022/08/11 01:46:04;;;;;;;;;;;;;;;33.41;25.69;101536.13;4429968;32;19961;-68
2022/08/11 01:48:40;;;;;;;;;;;;;;;33.49;25.54;101551.47;4429752;32;20565;-68
2022/08/11 01:51:14;;;;;;;;;;;;;;;33.60;25.43;101536.53;4429953;32;20046;-69
2022/08/11 01:54:00;;;;;;;;;;;;;;;33.47;25.57;101543.31;4430261;32;20011;-69
2022/08/11 01:56:33;;;;;;;;;;;;;;;33.59;25.54;101537.91;4431410;32;20369;-69
2022/08/11 01:59:08;;;;;;;;;;;;;;;33.17;26.28;101540.31;4429378;32;20056;-68
2022/08/11 02:07:11;;;;;;;;;;;;;;;33.32;26.10;101540.34;3955466;32;15725579;-68
2022/08/11 02:09:44;;;;;;;;;;;;;;;33.32;26.10;101540.34;4433481;32;20038;-66
2022/08/11 02:12:15;;;;;;;;;;;;;;;32.95;26.38;101555.59;4432715;32;20058;-67
2022/08/11 02:14:46;;;;;;;;;;;;;;;32.82;26.51;101546.94;4433537;32;20222;-69
2022/08/11 02:17:18;;;;;;;;;;;;;;;32.66;26.89;101539.47;4433008;32;19973;-68
2022/08/11 02:25:21;;;;;;;;;;;;;;;33.34;26.19;101546.38;3955383;32;15727670;-66
2022/08/11 02:27:52;;;;;;;;;;;;;;;33.34;26.19;101546.38;4438921;32;19996;-66
2022/08/11 02:30:23;;;;;;;;;;;;;;;32.89;26.68;101545.44;4437122;32;20016;-66
2022/08/11 02:43:49;;;;;;;;;;;;;;;33.44;26.22;101537.88;3955776;32;15727651;-66
2022/08/11 02:46:18;;;;;;;;;;;;;;;33.44;26.22;101537.88;4437594;32;19981;-68
2022/08/11 02:51:54;;;;;;;;;;;;;;;33.01;26.75;101524.09;4437574;32;20580;-66
2022/08/11 02:57:00;;;;;;;;;;;;;;;33.43;26.35;101524.63;3955984;32;15716867;-67
2022/08/11 03:00:01;;;;;;;;;;;;;;;33.43;26.35;101524.63;4429075;32;19956;-69
2022/08/11 03:02:36;;;;;;;;;;;;;;;32.97;26.58;101531.69;4429812;32;19996;-66
2022/08/11 03:05:11;;;;;;;;;;;;;;;32.98;26.82;101527.41;4431227;32;20059;-65
2022/08/11 03:10:24;;;;;;;;;;;;;;;33.23;26.69;101532.16;3955754;32;15721540;-63
2022/08/11 03:18:39;;;;;;;;;;;;;;;32.89;26.90;101539.59;4432059;32;19981;-66
2022/08/11 03:24:01;;;;;;;;;;;;;;;32.87;27.19;101536.47;3955297;32;15726382;-66
2022/08/11 03:26:38;;;;;;;;;;;;;;;32.64;27.38;101536.34;4433799;32;19999;-67
2022/08/11 03:29:11;;;;;;;;;;;;;;;32.67;27.33;101534.44;4432686;32;20498;-65
2022/08/11 03:31:48;;;;;;;;;;;;;;;32.53;27.30;101533.78;4434970;32;19993;-66
2022/08/11 03:34:17;;;;;;;;;;;;;;;32.63;27.36;101535.56;4434999;32;19953;-68
2022/08/11 03:50:06;;;;;;;;;;;;;;;32.73;27.48;101532.88;3967484;31;15715925;-67
2022/08/11 04:00:36;;;;;;;;;;;;;;;32.55;27.93;101528.16;3955267;32;15723649;-68
2022/08/11 04:03:21;;;;;;;;;;;;;;;32.55;27.93;101528.16;4434000;32;19997;-68
2022/08/11 04:06:08;;;;;;;;;;;;;;;32.13;28.16;101521.66;4432772;32;19984;-68
2022/08/11 04:08:53;;;;;;;;;;;;;;;31.96;28.29;101523.44;4432669;32;19969;-69
2022/08/11 04:11:38;;;;;;;;;;;;;;;31.88;28.49;101523.41;4433999;32;19949;-65
2022/08/11 04:17:29;;;;;;;;;;;;;;;31.76;28.82;101533.75;4431876;32;19964;-65
2022/08/11 04:20:14;;;;;;;;;;;;;;;31.69;28.91;101527.84;4431682;32;20249;-68
2022/08/11 04:23:02;;;;;;;;;;;;;;;31.76;28.71;101532.94;4434578;32;19981;-67
2022/08/11 04:25:42;;;;;;;;;;;;;;;31.69;28.83;101528.63;4435438;32;20404;-66
2022/08/11 04:28:28;;;;;;;;;;;;;;;31.76;28.65;101527.12;4432343;32;19988;-66
2022/08/11 04:31:13;;;;;;;;;;;;;;;31.68;28.93;101527.06;4432667;32;19961;-65
2022/08/11 04:33:59;;;;;;;;;;;;;;;31.73;28.71;101531.19;4430914;32;19983;-67
2022/08/11 04:39:42;;;;;;;;;;;;;;;31.43;29.05;101520.03;4431069;32;19995;-67
2022/08/11 05:10:04;;;;;;;;;;;;;;;32.06;28.43;101521.59;3955529;32;15725706;-66
2022/08/11 05:34:59;;;;;;;;;;;;;;;31.75;28.85;101531.41;4449753;32;19957;-68
2022/08/11 05:57:25;;;;;;;;;;;;;;;32.53;27.92;101545.44;4435647;32;20485;-68
2022/08/11 05:59:57;;;;;;;;;;;;;;;32.32;27.96;101536.72;4435327;32;20012;-67
2022/08/11 06:02:23;;;;;;;;;;;;;;;32.52;27.96;101541.72;4431448;32;20246;-65
2022/08/11 06:04:55;;;;;;;;;;;;;;;32.63;27.76;101542.78;4437090;32;20008;-65
2022/08/11 06:07:25;;;;;;;;;;;;;;;32.77;27.77;101541.28;4434009;32;20067;-67
2022/08/11 06:09:52;;;;;;;;;;;;;;;32.81;27.75;101544.59;4436511;32;20016;-65
2022/08/11 06:14:54;;;;;;;;;;;;;;;33.70;26.61;101549.97;3954339;32;15723523;-63
2022/08/11 06:17:22;;;;;;;;;;;;;;;33.70;26.61;101549.97;4428964;32;19983;-67
2022/08/11 06:19:48;;;;;;;;;;;;;;;33.41;26.99;101550.69;4431667;32;19986;-64
2022/08/11 06:22:19;;;;;;;;;;;;;;;33.51;26.84;101548.78;4432410;32;20281;-67
2022/08/11 06:24:52;;;;;;;;;;;;;;;33.47;26.69;101548.37;4432638;32;19961;-66
2022/08/11 06:27:19;;;;;;;;;;;;;;;33.63;26.77;101547.03;4432053;32;20007;-67
2022/08/11 06:29:47;;;;;;;;;;;;;;;33.74;26.54;101544.50;4431282;32;20039;-65
2022/08/11 06:32:14;;;;;;;;;;;;;;;33.98;26.22;101549.03;4432541;32;20464;-66
2022/08/11 06:34:59;;;;;;;;;;;;;;;34.08;26.21;101547.09;4432138;32;20011;-65
2022/08/11 06:37:35;;;;;;;;;;;;;;;34.17;25.92;101543.56;4434468;32;20346;-67
2022/08/11 06:40:07;;;;;;;;;;;;;;;34.03;25.83;101545.94;4433143;32;19962;-65
2022/08/11 06:42:42;;;;;;;;;;;;;;;34.38;25.57;101550.00;4436563;32;20099;-65
2022/08/11 06:47:46;;;;;;;;;;;;;;;35.17;24.80;101550.12;3962615;31;15731022;-65
2022/08/11 06:53:04;;;;;;;;;;;;;;;34.95;24.90;101542.25;4446526;32;19957;-68
2022/08/11 07:01:06;;;;;;;;;;;;;;;35.28;24.42;101555.53;4447333;32;20290;-66
2022/08/11 07:03:35;;;;;;;;;;;;;;;35.26;24.26;101548.72;4448102;32;20378;-66
2022/08/11 07:06:13;;;;;;;;;;;;;;;35.43;24.32;101554.69;4445519;32;19998;-68
2022/08/11 07:17:20;;;;;;;;;;;;;;;36.15;23.69;101549.47;4444446;32;20084;-68
2022/08/11 07:31:02;;;;;;;;;;;;;;;36.42;22.89;101537.88;4447860;32;19953;-68
2022/08/11 07:33:31;;;;;;;;;;;;;;;36.45;22.94;101542.53;4442024;32;19957;-65
2022/08/11 07:35:59;;;;;;;;;;;;;;;36.68;22.62;101548.91;4443479;32;20004;-68
2022/08/11 07:38:42;;;;;;;;;;;;;;;36.61;22.77;101547.66;4447554;32;20000;-64
2022/08/11 07:41:08;;;;;;;;;;;;;;;36.46;22.83;101539.00;4444399;32;19963;-67
2022/08/11 07:43:34;;;;;;;;;;;;;;;36.68;22.76;101531.31;4445508;32;19962;-66
2022/08/11 07:54:20;;;;;;;;;;;;;;;37.36;22.04;101532.03;4443491;32;19957;-65
2022/08/11 07:56:46;;;;;;;;;;;;;;;37.20;22.02;101532.84;4442507;32;19949;-67
2022/08/11 08:18:35;;;;;;;;;;;;;;;37.84;21.44;101530.12;4439671;32;20197;-66
2022/08/11 08:21:10;;;;;;;;;;;;;;;38.33;20.97;101525.94;4442049;32;19953;-67
2022/08/11 08:23:37;;;;;;;;;;;;;;;38.49;20.81;101523.47;4444251;32;19989;-66
2022/08/11 08:26:57;;;;;;;;;;;;;;;38.72;20.50;101533.44;4433313;32;19961;-65
2022/08/11 08:28:51;;;;;;;;;;;;;;;39.09;19.96;101517.16;4429837;32;20322;-65
2022/08/11 08:31:17;;;;;;;;;;;;;;;39.07;19.86;101527.97;4429605;32;19957;-68
2022/08/11 08:33:43;;;;;;;;;;;;;;;38.97;20.06;101522.13;4427831;32;20000;-66
2022/08/11 08:36:11;;;;;;;;;;;;;;;39.34;19.50;101528.53;4430572;32;20019;-68
2022/08/11 08:38:52;;;;;;;;;;;;;;;39.45;19.42;101522.78;4430258;32;19998;-66
2022/08/11 08:41:22;;;;;;;;;;;;;;;39.94;18.66;101535.19;4429481;32;19957;-65
2022/08/11 08:43:49;;;;;;;;;;;;;;;40.11;18.91;101534.91;4433272;32;19989;-65
2022/08/11 08:46:18;;;;;;;;;;;;;;;40.42;18.49;101527.59;4431086;32;20023;-67
2022/08/11 08:48:45;;;;;;;;;;;;;;;40.49;18.16;101525.84;4428851;32;19980;-65
2022/08/11 08:51:43;;;;;;;;;;;;;;;40.44;18.42;101530.69;4430105;32;19961;-65
2022/08/11 08:54:02;;;;;;;;;;;;;;;40.69;18.47;101536.09;4427104;32;19992;-68
2022/08/11 08:56:28;;;;;;;;;;;;;;;41.36;17.91;101527.38;4428867;32;20267;-65
2022/08/11 08:58:55;;;;;;;;;;;;;;;41.89;17.58;101532.34;4429303;32;20054;-68
2022/08/11 09:01:24;;;;;;;;;;;;;;;42.09;17.50;101524.00;4430529;32;20343;-65
2022/08/11 09:03:50;;;;;;;;;;;;;;;42.15;17.44;101527.31;4429443;32;20040;-69
2022/08/11 09:06:16;;;;;;;;;;;;;;;42.81;16.95;101525.50;4428969;32;19992;-66
2022/08/11 09:08:43;;;;;;;;;;;;;;;42.77;16.91;101522.31;4431230;32;20025;-67
2022/08/11 09:13:55;;;;;;;;;;;;;;;44.10;15.63;101515.88;4428441;32;20425;-66
2022/08/11 09:16:21;;;;;;;;;;;;;;;44.28;15.42;101522.81;4428851;32;20047;-66
2022/08/11 09:18:47;;;;;;;;;;;;;;;44.74;14.87;101520.12;4429608;32;20320;-68
2022/08/11 09:21:14;;;;;;;;;;;;;;;45.04;14.74;101514.97;4429883;32;20370;-67
2022/08/11 09:29:12;;;;;;;;;;;;;;;44.29;15.04;101513.25;4426344;32;20360;-66
2022/08/11 09:31:38;;;;;;;;;;;;;;;44.80;14.63;101517.47;4424691;32;19972;-66
2022/08/11 09:34:03;;;;;;;;;;;;;;;44.15;15.03;101512.50;4425408;32;20477;-67
2022/08/11 09:42:02;;;;;;;;;;;;;;;44.67;14.54;101514.53;4425433;32;20036;-66
2022/08/11 09:44:59;;;;;;;;;;;;;;;45.00;14.38;101505.09;4429884;32;19992;-67
2022/08/11 09:47:17;;;;;;;;;;;;;;;45.51;13.96;101512.06;4425905;32;19961;-68
2022/08/11 09:49:44;;;;;;;;;;;;;;;45.74;13.62;101502.81;4426376;32;19998;-67
2022/08/11 09:52:12;;;;;;;;;;;;;;;45.89;13.28;101502.03;4427122;32;20026;-66
2022/08/11 09:54:39;;;;;;;;;;;;;;;46.12;13.12;101502.38;4424944;32;19994;-67
2022/08/11 09:59:51;;;;;;;;;;;;;;;46.58;12.68;101500.72;4425245;32;20017;-66
2022/08/11 10:02:22;;;;;;;;;;;;;;;46.76;12.43;101501.50;4427248;32;19982;-66
2022/08/11 10:04:48;;;;;;;;;;;;;;;47.23;11.75;101498.28;4427050;32;20046;-67
2022/08/11 10:07:15;;;;;;;;;;;;;;;47.08;11.83;101499.88;4423006;32;19976;-67
2022/08/11 10:12:25;;;;;;;;;;;;;;;46.87;12.07;101490.78;3962755;32;15946416;-67
2022/08/11 10:18:40;;;;;;;;;;;;;;;46.92;11.96;101492.50;4442469;32;20346;-67
2022/08/11 10:20:29;;;;;;;;;;;;;;;47.36;11.18;101494.34;4445011;32;19968;-67
2022/08/11 10:28:27;;;;;;;;;;;;;;;47.88;10.05;101499.38;4444513;32;19957;-66
2022/08/11 10:34:12;;;;;;;;;;;;;;;48.41;9.75;101499.13;4442752;32;20356;-66
2022/08/11 10:36:26;;;;;;;;;;;;;;;48.67;9.74;101494.84;4443592;32;19965;-68
2022/08/11 10:38:52;;;;;;;;;;;;;;;48.66;9.54;101490.34;4444535;32;20004;-65
2022/08/11 10:44:06;;;;;;;;;;;;;;;49.07;9.28;101477.53;4445378;32;20009;-67
2022/08/11 10:49:19;;;;;;;;;;;;;;;49.10;8.95;101485.09;4443994;32;20004;-68
2022/08/11 11:00:05;;;;;;;;;;;;;;;49.17;8.91;101490.56;4442701;32;20178;-67
2022/08/11 11:02:32;;;;;;;;;;;;;;;49.49;8.87;101478.88;4444847;32;19992;-67
2022/08/11 11:05:11;;;;;;;;;;;;;;;50.45;8.36;101486.94;4445247;32;20417;-67
2022/08/11 11:07:51;;;;;;;;;;;;;;;50.60;8.35;101480.59;4445566;32;19989;-66
2022/08/11 11:10:17;;;;;;;;;;;;;;;50.63;8.21;101487.41;4441211;32;20027;-66
2022/08/11 11:18:21;;;;;;;;;;;;;;;50.98;7.85;101472.59;4443735;32;19997;-67
2022/08/11 11:21:07;;;;;;;;;;;;;;;51.24;7.84;101475.47;4444140;32;20422;-68
2022/08/11 11:23:39;;;;;;;;;;;;;;;51.51;7.41;101475.38;4432142;32;19983;-68
2022/08/11 11:31:30;;;;;;;;;;;;;;;51.74;7.53;101472.88;3972235;31;15715983;-65
2022/08/11 11:34:11;;;;;;;;;;;;;;;51.74;7.53;101472.88;4451822;32;20980;-66
2022/08/11 11:36:46;;;;;;;;;;;;;;;51.81;7.63;101466.28;4453768;32;19988;-65
2022/08/11 11:39:11;;;;;;;;;;;;;;;51.18;7.86;101463.31;4455605;32;20010;-66
2022/08/11 11:41:38;;;;;;;;;;;;;;;51.58;7.70;101461.25;4455124;32;20020;-69
2022/08/11 11:44:04;;;;;;;;;;;;;;;51.65;7.69;101465.94;4450468;32;20589;-67
2022/08/11 11:46:30;;;;;;;;;;;;;;;52.03;7.44;101463.72;4451573;32;20500;-66
2022/08/11 11:48:57;;;;;;;;;;;;;;;52.63;7.11;101461.84;4454351;32;20036;-66
2022/08/11 11:51:24;;;;;;;;;;;;;;;52.26;7.31;101465.66;4454993;32;20325;-67
2022/08/11 11:53:50;;;;;;;;;;;;;;;53.13;6.76;101468.72;4455170;32;20007;-68
2022/08/11 11:56:17;;;;;;;;;;;;;;;52.96;6.97;101466.94;4452134;32;21440;-66
2022/08/11 12:01:32;;;;;;;;;;;;;;;52.74;6.87;101453.78;4452280;32;20365;-65
2022/08/11 12:03:59;;;;;;;;;;;;;;;51.26;7.30;101457.53;4443415;32;20360;-66
2022/08/11 12:06:26;;;;;;;;;;;;;;;52.39;6.95;101448.66;4455511;32;20009;-66
2022/08/11 12:08:53;;;;;;;;;;;;;;;51.51;7.27;101448.38;4454427;32;19974;-67
2022/08/11 12:14:08;;;;;;;;;;;;;;;51.76;7.28;101446.66;4452563;32;20882;-66
2022/08/11 12:16:35;;;;;;;;;;;;;;;52.35;6.88;101437.31;4452266;32;20008;-66
2022/08/11 12:19:01;;;;;;;;;;;;;;;52.95;6.61;101435.34;4449915;32;20022;-66
2022/08/11 12:21:27;;;;;;;;;;;;;;;53.17;6.52;101441.69;4455414;32;19952;-68
2022/08/11 12:29:26;;;;;;;;;;;;;;;52.93;6.85;101429.31;4449765;32;19972;-68
2022/08/11 12:31:54;;;;;;;;;;;;;;;53.16;6.76;101436.41;4438295;32;19984;-66
2022/08/11 12:34:19;;;;;;;;;;;;;;;53.14;6.74;101437.13;4457591;32;20014;-66
2022/08/11 12:36:49;;;;;;;;;;;;;;;52.94;6.57;101433.81;4456162;32;19996;-67
2022/08/11 12:39:18;;;;;;;;;;;;;;;53.23;6.63;101431.97;4455813;32;20328;-66
2022/08/11 12:47:18;;;;;;;;;;;;;;;53.73;6.49;101425.91;4444169;32;19948;-65
2022/08/11 12:52:34;;;;;;;;;;;;;;;53.67;6.43;101416.78;4443969;32;20327;-67
2022/08/11 12:55:02;;;;;;;;;;;;;;;53.58;6.49;101415.91;4446508;32;20500;-67
2022/08/11 13:05:36;;;;;;;;;;;;;;;52.48;6.66;101399.94;4432652;32;19961;-66
2022/08/11 13:08:02;;;;;;;;;;;;;;;52.77;6.49;101411.00;4429985;32;19993;-69
2022/08/11 13:13:17;;;;;;;;;;;;;;;52.15;6.83;101391.88;4431930;32;19997;-69
2022/08/11 13:15:44;;;;;;;;;;;;;;;52.04;6.97;101393.16;4428942;32;20015;-67
2022/08/11 13:18:13;;;;;;;;;;;;;;;52.59;6.72;101392.63;4431929;32;20023;-66
2022/08/11 13:20:40;;;;;;;;;;;;;;;52.94;6.59;101387.97;4431882;32;19957;-68
2022/08/11 13:23:06;;;;;;;;;;;;;;;53.16;6.27;101394.28;4432363;32;19965;-66
2022/08/11 13:25:32;;;;;;;;;;;;;;;53.14;6.30;101382.19;4429567;32;20037;-65
2022/08/11 13:27:59;;;;;;;;;;;;;;;53.50;6.40;101375.91;4431153;32;19964;-69
2022/08/11 13:33:15;;;;;;;;;;;;;;;54.70;5.55;101380.13;4431883;32;19953;-66
2022/08/11 13:35:41;;;;;;;;;;;;;;;55.10;5.47;101374.34;4433008;32;19969;-67
2022/08/11 13:38:12;;;;;;;;;;;;;;;55.25;5.23;101369.94;4432476;32;20008;-67
2022/08/11 13:40:39;;;;;;;;;;;;;;;55.67;5.01;101373.09;4432599;32;20368;-67
2022/08/11 13:43:05;;;;;;;;;;;;;;;55.88;4.85;101377.69;4435598;32;20000;-68
2022/08/11 13:45:32;;;;;;;;;;;;;;;56.05;4.82;101378.50;4433578;32;19953;-66
2022/08/11 13:47:59;;;;;;;;;;;;;;;56.32;4.67;101374.00;4431561;32;19953;-66
2022/08/11 13:53:12;;;;;;;;;;;;;;;56.45;4.44;101369.44;4428889;32;19992;-67
2022/08/11 13:55:39;;;;;;;;;;;;;;;57.05;4.25;101368.59;4432153;32;19997;-67
2022/08/11 13:58:05;;;;;;;;;;;;;;;57.28;4.06;101366.97;4430576;32;20319;-68
2022/08/11 14:00:30;;;;;;;;;;;;;;;56.80;4.54;101364.88;4432975;32;19993;-68
2022/08/11 14:02:57;;;;;;;;;;;;;;;56.41;4.63;101361.12;4430884;32;20002;-66
2022/08/11 14:05:28;;;;;;;;;;;;;;;56.63;4.59;101369.44;4433289;32;20074;-66
2022/08/11 14:07:58;;;;;;;;;;;;;;;57.61;4.36;101374.41;4429874;32;19975;-68
2022/08/11 14:10:27;;;;;;;;;;;;;;;56.85;4.56;101366.34;4426383;32;19953;-69
2022/08/11 14:15:44;;;;;;;;;;;;;;;56.76;4.59;101355.78;4423346;32;20060;-68
2022/08/11 14:23:39;;;;;;;;;;;;;;;57.60;4.18;101354.72;4422234;32;19989;-67
2022/08/11 14:26:37;;;;;;;;;;;;;;;58.56;3.79;101363.06;4424665;32;19969;-68
2022/08/11 14:28:56;;;;;;;;;;;;;;;58.14;3.90;101357.38;4420374;32;20341;-69
2022/08/11 14:31:24;;;;;;;;;;;;;;;58.53;3.74;101354.75;4421643;32;20005;-69
2022/08/11 14:33:52;;;;;;;;;;;;;;;59.53;3.32;101360.41;4420592;32;19990;-66
2022/08/11 14:36:19;;;;;;;;;;;;;;;59.98;3.04;101351.34;4422606;32;20001;-67
2022/08/11 14:38:45;;;;;;;;;;;;;;;60.13;2.96;101346.56;4420144;32;20000;-69
2022/08/11 14:47:14;;;;;;;;;;;;;;;62.22;2.37;101351.19;4424135;32;20023;-66
2022/08/11 14:49:28;;;;;;;;;;;;;;;63.06;1.99;101348.06;4423147;32;19963;-68
2022/08/11 14:51:55;;;;;;;;;;;;;;;64.21;1.64;101346.63;4423692;32;19958;-68
2022/08/11 14:57:10;;;;;;;;;;;;;;;63.64;1.83;101347.03;4423715;32;20005;-66
2022/08/11 14:59:36;;;;;;;;;;;;;;;63.77;1.71;101347.38;4421825;32;19953;-69
2022/08/11 15:04:49;;;;;;;;;;;;;;;63.43;1.64;101340.06;4423587;32;19983;-66
2022/08/11 15:07:16;;;;;;;;;;;;;;;63.75;1.63;101344.41;4422620;32;19972;-68
2022/08/11 15:09:42;;;;;;;;;;;;;;;64.30;1.29;101350.12;4422343;32;19988;-67
2022/08/11 15:12:15;;;;;;;;;;;;;;;64.39;1.25;101349.03;4425286;32;19981;-66
2022/08/11 15:17:28;;;;;;;;;;;;;;;63.96;1.37;101333.72;4423975;32;19989;-69
2022/08/11 15:25:26;;;;;;;;;;;;;;;62.09;1.91;101320.28;4423255;32;19953;-67
2022/08/11 15:39:01;;;;;;;;;;;;;;;64.56;1.04;101312.47;4415210;32;19976;-67
2022/08/11 15:47:09;;;;;;;;;;;;;;;65.30;0.63;101315.72;4413557;32;20027;-66
2022/08/11 15:49:36;;;;;;;;;;;;;;;65.74;0.59;101310.06;4416628;32;20024;-69
2022/08/11 15:52:06;;;;;;;;;;;;;;;65.60;0.65;101311.44;4402134;32;20013;-69
2022/08/11 15:54:32;;;;;;;;;;;;;;;66.32;0.38;101304.44;4415745;32;20046;-67
2022/08/11 15:57:01;;;;;;;;;;;;;;;65.83;0.46;101305.84;4417979;32;19954;-68
2022/08/11 16:05:07;;;;;;;;;;;;;;;64.51;0.82;101289.69;4415743;32;20013;-67
2022/08/11 16:07:34;;;;;;;;;;;;;;;65.30;0.54;101293.53;4415526;32;19985;-67
2022/08/11 16:18:19;;;;;;;;;;;;;;;63.18;1.10;101269.06;4442870;32;20356;-67
2022/08/11 16:20:45;;;;;;;;;;;;;;;63.04;1.13;101274.88;4441062;32;19993;-66
2022/08/11 16:23:13;;;;;;;;;;;;;;;62.81;1.22;101263.28;4440615;32;19990;-66
2022/08/11 16:25:39;;;;;;;;;;;;;;;63.18;1.05;101271.37;4441586;32;20502;-69
2022/08/11 16:28:05;;;;;;;;;;;;;;;63.52;1.00;101267.19;4441217;32;19961;-68
2022/08/11 16:30:32;;;;;;;;;;;;;;;63.60;1.02;101263.87;4442758;32;20011;-68
2022/08/11 16:32:59;;;;;;;;;;;;;;;63.79;0.89;101267.81;4441439;32;19999;-67
2022/08/11 16:38:43;;;;;;;;;;;;;;;63.48;0.97;101261.22;4442661;32;19977;-67
2022/08/11 16:40:59;;;;;;;;;;;;;;;64.07;0.83;101261.47;4442924;32;19957;-66
2022/08/11 16:49:04;;;;;;;;;;;;;;;64.40;0.73;101267.87;4440791;32;19988;-68
2022/08/11 16:51:30;;;;;;;;;;;;;;;62.83;1.07;101250.28;4442471;32;20015;-68
2022/08/11 16:53:56;;;;;;;;;;;;;;;61.51;1.49;101238.72;4440798;32;19955;-69
2022/08/11 16:56:26;;;;;;;;;;;;;;;58.96;2.21;101237.47;4438614;32;20148;-67
2022/08/11 16:59:25;;;;;;;;;;;;;;;56.83;3.00;101235.50;4440168;32;20160;-68
2022/08/11 17:02:02;;;;;;;;;;;;;;;56.39;3.07;101228.09;4439790;32;20275;-68
2022/08/11 17:13:21;;;;;;;;;;;;;;;61.07;1.52;101235.16;4439650;32;19988;-67
2022/08/11 17:16:11;;;;;;;;;;;;;;;61.16;1.42;101239.50;4441650;32;19992;-68
2022/08/11 17:18:43;;;;;;;;;;;;;;;61.99;1.24;101234.38;4442562;32;19953;-65
2022/08/11 17:21:11;;;;;;;;;;;;;;;62.06;1.23;101235.72;4439838;32;19977;-68
2022/08/11 17:23:57;;;;;;;;;;;;;;;61.48;1.44;101225.81;4423337;32;19966;-67
2022/08/11 17:26:52;;;;;;;;;;;;;;;61.87;1.41;101226.34;4431380;32;19998;-66
2022/08/11 17:29:13;;;;;;;;;;;;;;;61.02;1.70;101218.50;4428521;32;19979;-67
2022/08/11 17:37:13;;;;;;;;;;;;;;;60.91;1.76;101214.16;4429856;32;20076;-67
2022/08/11 17:39:39;;;;;;;;;;;;;;;61.63;1.53;101217.81;4428920;32;20375;-66
2022/08/11 17:50:24;;;;;;;;;;;;;;;61.69;1.60;101216.87;4432186;32;20000;-68
2022/08/11 18:01:10;;;;;;;;;;;;;;;60.88;1.88;101212.72;4418638;32;20050;-69
2022/08/11 18:03:39;;;;;;;;;;;;;;;60.84;1.85;101202.97;4429354;32;19945;-69
2022/08/11 18:06:05;;;;;;;;;;;;;;;60.15;2.01;101212.75;4428347;32;20015;-67
